createdAt,value
2022-10-06T00:01:16.472Z,80.02
2022-10-06T00:03:46.210Z,80.04
2022-10-06T00:06:17.437Z,81.40
2022-10-06T00:08:45.391Z,80.80
2022-10-06T00:13:43.574Z,80.98
2022-10-06T00:16:21.811Z,81.17
2022-10-06T00:18:49.761Z,81.16
2022-10-06T00:21:18.077Z,81.21
2022-10-06T00:23:46.178Z,81.38
2022-10-06T00:26:17.219Z,81.29
2022-10-06T00:28:47.855Z,81.60
2022-10-06T00:31:17.429Z,81.49
2022-10-06T00:33:44.852Z,81.74
2022-10-06T00:36:12.156Z,81.74
2022-10-06T00:38:39.964Z,81.63
2022-10-06T00:41:07.646Z,81.41
2022-10-06T00:44:13.273Z,81.12
2022-10-06T00:46:48.534Z,81.42
2022-10-06T00:49:36.007Z,81.82
2022-10-06T00:52:11.201Z,82.00
2022-10-06T00:54:39.304Z,82.28
2022-10-06T00:57:08.098Z,82.00
2022-10-06T00:59:37.436Z,82.11
2022-10-06T01:02:11.465Z,82.05
2022-10-06T01:04:45.879Z,81.94
2022-10-06T01:07:12.969Z,82.34
2022-10-06T01:09:42.373Z,82.31
2022-10-06T01:12:10.087Z,82.54
2022-10-06T01:14:39.553Z,82.64
2022-10-06T01:17:14.072Z,82.60
2022-10-06T01:19:47.719Z,82.50
2022-10-06T01:22:18.381Z,82.25
2022-10-06T01:24:48.617Z,82.52
2022-10-06T01:27:17.937Z,82.83
2022-10-06T01:29:45.476Z,82.43
2022-10-06T01:32:12.546Z,82.44
2022-10-06T01:34:40.426Z,82.33
2022-10-06T01:37:07.464Z,82.09
2022-10-06T01:39:35.147Z,82.32
2022-10-06T01:42:02.996Z,82.30
2022-10-06T01:47:14.627Z,82.59
2022-10-06T01:49:41.673Z,82.65
2022-10-06T01:52:09.379Z,82.47
2022-10-06T01:54:37.058Z,82.41
2022-10-06T01:57:06.343Z,82.05
2022-10-06T01:59:33.399Z,82.25
2022-10-06T02:02:01.010Z,82.65
2022-10-06T02:04:28.604Z,82.37
2022-10-06T02:06:57.003Z,82.22
2022-10-06T02:09:24.458Z,82.01
2022-10-06T02:11:51.781Z,81.57
2022-10-06T02:14:19.151Z,81.31
2022-10-06T02:16:46.685Z,81.69
2022-10-06T02:19:13.797Z,81.51
2022-10-06T02:21:41.163Z,81.30
2022-10-06T02:24:08.738Z,81.42
2022-10-06T02:26:35.822Z,81.07
2022-10-06T02:29:02.911Z,81.37
2022-10-06T02:31:30.366Z,81.26
2022-10-06T02:33:59.057Z,80.65
2022-10-06T02:36:26.317Z,81.18
2022-10-06T02:38:53.635Z,81.38
2022-10-06T02:41:21.940Z,81.71
2022-10-06T02:43:49.236Z,81.41
2022-10-06T02:46:16.724Z,81.73
2022-10-06T02:48:44.907Z,81.55
2022-10-06T02:51:16.569Z,81.56
2022-10-06T02:53:47.815Z,82.09
2022-10-06T02:56:18.589Z,82.09
2022-10-06T02:58:49.366Z,82.33
2022-10-06T03:01:28.285Z,82.46
2022-10-06T03:03:57.047Z,82.43
2022-10-06T03:06:26.569Z,81.90
2022-10-06T03:09:00.435Z,82.19
2022-10-06T03:11:33.560Z,82.53
2022-10-06T03:14:01.042Z,82.45
2022-10-06T03:16:33.236Z,82.59
2022-10-06T03:19:01.398Z,82.49
2022-10-06T03:21:36.437Z,82.25
2022-10-06T03:24:04.679Z,82.19
2022-10-06T03:26:35.174Z,82.46
2022-10-06T03:29:02.790Z,82.70
2022-10-06T03:31:30.526Z,82.38
2022-10-06T03:33:57.781Z,82.87
2022-10-06T03:36:28.270Z,82.30
2022-10-06T03:38:55.839Z,81.87
2022-10-06T03:41:29.058Z,82.13
2022-10-06T03:43:58.763Z,81.53
2022-10-06T03:49:21.324Z,80.93
2022-10-06T03:51:49.135Z,81.04
2022-10-06T03:54:17.091Z,81.54
2022-10-06T03:56:44.161Z,81.86
2022-10-06T03:59:14.636Z,81.71
2022-10-06T04:01:45.599Z,81.32
2022-10-06T04:04:13.419Z,81.34
2022-10-06T04:06:45.673Z,81.08
2022-10-06T04:09:34.100Z,81.35
2022-10-06T04:12:02.633Z,81.43
2022-10-06T04:14:29.626Z,81.15
2022-10-06T04:16:57.940Z,81.23
2022-10-06T04:19:27.833Z,80.92
2022-10-06T04:21:55.857Z,80.52
2022-10-06T04:24:22.872Z,80.36
2022-10-06T04:26:52.178Z,80.75
2022-10-06T04:29:20.285Z,80.38
2022-10-06T04:31:48.804Z,80.30
2022-10-06T04:34:16.367Z,80.55
2022-10-06T04:36:46.084Z,80.28
2022-10-06T04:39:13.690Z,80.24
2022-10-06T04:41:47.481Z,80.00
2022-10-06T04:44:15.027Z,80.10
2022-10-06T04:46:44.135Z,80.12
2022-10-06T04:49:18.912Z,79.76
2022-10-06T04:51:49.547Z,79.59
2022-10-06T04:54:18.175Z,80.12
2022-10-06T04:56:46.622Z,79.83
2022-10-06T04:59:14.179Z,80.09
2022-10-06T05:01:41.533Z,80.04
2022-10-06T05:04:08.919Z,80.33
2022-10-06T05:06:39.390Z,80.15
2022-10-06T05:09:15.809Z,80.05
2022-10-06T05:11:43.456Z,79.96
2022-10-06T05:14:10.969Z,79.74
2022-10-06T05:16:38.598Z,79.43
2022-10-06T05:19:08.421Z,79.53
2022-10-06T05:21:35.631Z,78.67
2022-10-06T05:24:03.913Z,78.42
2022-10-06T05:26:34.581Z,78.76
2022-10-06T05:29:03.683Z,78.43
2022-10-06T05:31:33.839Z,78.60
2022-10-06T05:34:05.317Z,78.52
2022-10-06T05:36:34.125Z,78.13
2022-10-06T05:39:02.850Z,77.74
2022-10-06T05:41:41.796Z,76.62
2022-10-06T05:44:09.719Z,76.35
2022-10-06T05:46:37.509Z,76.09
2022-10-06T05:49:10.664Z,75.93
2022-10-06T05:51:40.673Z,75.02
2022-10-06T05:54:08.774Z,74.67
2022-10-06T05:56:39.067Z,74.25
2022-10-06T05:59:08.811Z,73.87
2022-10-06T06:01:37.160Z,74.07
2022-10-06T06:04:06.685Z,74.19
2022-10-06T06:06:42.159Z,73.78
2022-10-06T06:09:16.436Z,74.25
2022-10-06T06:11:47.300Z,73.98
2022-10-06T06:14:16.840Z,73.74
2022-10-06T06:16:49.480Z,72.10
2022-10-06T06:19:22.534Z,71.78
2022-10-06T06:21:54.517Z,71.86
2022-10-06T06:24:26.826Z,71.50
2022-10-06T06:26:54.146Z,71.43
2022-10-06T06:29:21.263Z,70.81
2022-10-06T06:31:48.697Z,70.04
2022-10-06T06:34:19.210Z,69.60
2022-10-06T06:36:52.146Z,69.00
2022-10-06T06:39:21.299Z,69.00
2022-10-06T06:41:49.088Z,68.47
2022-10-06T06:44:16.747Z,68.02
2022-10-06T06:58:00.657Z,65.28
2022-10-06T07:00:36.362Z,64.64
2022-10-06T07:03:03.608Z,64.98
2022-10-06T07:05:30.896Z,65.41
2022-10-06T07:07:59.565Z,65.05
2022-10-06T07:10:27.706Z,64.82
2022-10-06T07:12:57.004Z,64.10
2022-10-06T07:19:13.066Z,63.32
2022-10-06T07:25:28.436Z,63.92
2022-10-06T07:30:40.919Z,63.98
2022-10-06T07:33:09.463Z,62.87
2022-10-06T07:35:41.067Z,61.85
2022-10-06T07:38:10.004Z,61.51
2022-10-06T07:40:40.229Z,61.82
2022-10-06T07:46:14.926Z,60.29
2022-10-06T07:48:46.943Z,60.02
2022-10-06T07:51:16.541Z,59.06
2022-10-06T07:53:55.939Z,57.77
2022-10-06T08:01:59.736Z,55.92
2022-10-06T08:04:50.827Z,53.81
2022-10-06T08:07:29.502Z,53.48
2022-10-06T08:10:06.426Z,54.21
2022-10-06T08:12:33.575Z,52.95
2022-10-06T08:15:06.994Z,50.86
2022-10-06T08:17:37.631Z,51.03
2022-10-06T08:20:07.114Z,50.04
2022-10-06T08:22:36.246Z,49.49
2022-10-06T08:25:06.517Z,48.65
2022-10-06T08:27:35.647Z,48.28
2022-10-06T08:30:07.335Z,44.76
2022-10-06T08:32:34.447Z,43.99
2022-10-06T08:35:02.717Z,43.05
2022-10-06T08:37:30.214Z,41.30
2022-10-06T08:39:59.104Z,40.23
2022-10-06T08:42:42.509Z,36.24
2022-10-06T08:45:24.210Z,35.30
2022-10-06T08:51:27.094Z,32.76
2022-10-06T08:54:16.864Z,33.38
2022-10-06T08:57:10.330Z,29.63
2022-10-06T08:59:37.820Z,29.35
2022-10-06T09:02:26.704Z,28.89
2022-10-06T09:05:02.789Z,27.90
2022-10-06T09:08:16.280Z,28.52
2022-10-06T09:10:50.501Z,28.58
2022-10-06T09:13:25.619Z,26.54
2022-10-06T09:16:07.689Z,26.21
2022-10-06T09:19:07.323Z,25.40
2022-10-06T09:21:47.806Z,24.19
2022-10-06T09:24:18.134Z,25.17
2022-10-06T09:26:49.994Z,24.00
2022-10-06T09:29:17.157Z,24.57
2022-10-06T09:31:51.604Z,24.05
2022-10-06T09:34:25.340Z,22.66
2022-10-06T09:37:11.592Z,23.13
2022-10-06T09:39:54.318Z,21.60
2022-10-06T09:42:27.308Z,22.86
2022-10-06T09:45:27.100Z,23.12
2022-10-06T09:48:12.393Z,22.43
2022-10-06T09:50:40.874Z,22.93
2022-10-06T09:53:16.419Z,23.31
2022-10-06T09:55:51.631Z,24.37
2022-10-06T09:58:21.340Z,26.22
2022-10-06T10:00:57.944Z,27.50
2022-10-06T10:03:44.518Z,27.63
2022-10-06T10:06:27.779Z,28.93
2022-10-06T10:09:25.199Z,29.24
2022-10-06T10:12:27.214Z,30.26
2022-10-06T10:15:02.744Z,30.97
2022-10-06T10:17:30.025Z,30.55
2022-10-06T10:20:23.314Z,30.27
2022-10-06T10:22:55.056Z,30.15
2022-10-06T10:25:44.932Z,28.99
2022-10-06T10:28:31.123Z,30.18
2022-10-06T10:31:31.378Z,30.81
2022-10-06T10:34:12.510Z,31.44
2022-10-06T10:36:51.042Z,31.81
2022-10-06T10:39:53.452Z,31.59
2022-10-06T10:42:31.724Z,31.80
2022-10-06T10:45:03.453Z,31.94
2022-10-06T10:47:38.193Z,32.14
2022-10-06T10:50:43.984Z,32.51
2022-10-06T10:53:28.437Z,32.43
2022-10-06T10:55:56.882Z,32.00
2022-10-06T10:58:34.870Z,32.89
2022-10-06T11:01:27.011Z,31.22
2022-10-06T11:03:59.527Z,29.72
2022-10-06T11:07:03.870Z,30.09
2022-10-06T11:09:45.111Z,31.07
2022-10-06T11:12:21.234Z,31.68
2022-10-06T11:15:16.527Z,31.39
2022-10-06T11:18:28.927Z,31.77
2022-10-06T11:21:25.851Z,31.30
2022-10-06T11:24:19.225Z,31.99
2022-10-06T11:27:03.559Z,32.01
2022-10-06T11:29:43.704Z,31.23
2022-10-06T11:32:30.018Z,31.68
2022-10-06T11:34:57.577Z,32.68
2022-10-06T11:37:34.038Z,32.04
2022-10-06T11:40:35.152Z,31.61
2022-10-06T11:43:20.898Z,32.00
2022-10-06T11:46:03.183Z,32.12
2022-10-06T11:48:33.521Z,32.52
2022-10-06T11:51:25.469Z,33.48
2022-10-06T11:53:56.983Z,33.03
2022-10-06T11:59:43.155Z,33.55
2022-10-06T12:02:33.316Z,33.57
2022-10-06T12:05:55.268Z,32.89
2022-10-06T12:08:09.439Z,33.61
2022-10-06T12:10:47.738Z,33.68
2022-10-06T12:14:26.538Z,33.03
2022-10-06T12:20:04.072Z,33.02
2022-10-06T12:22:48.252Z,32.28
2022-10-06T12:25:48.115Z,31.96
2022-10-06T12:28:59.677Z,32.23
2022-10-06T12:31:57.189Z,31.12
2022-10-06T12:34:57.373Z,32.41
2022-10-06T12:37:40.682Z,33.09
2022-10-06T12:40:43.214Z,32.95
2022-10-06T12:43:14.523Z,33.30
2022-10-06T12:45:46.229Z,32.45
2022-10-06T12:48:55.711Z,32.56
2022-10-06T12:51:23.120Z,33.13
2022-10-06T12:54:19.765Z,33.36
2022-10-06T12:57:20.734Z,33.69
2022-10-06T12:59:49.582Z,33.69
2022-10-06T13:02:28.721Z,33.86
2022-10-06T13:05:16.229Z,34.22
2022-10-06T13:08:21.594Z,33.11
2022-10-06T13:13:46.327Z,32.61
2022-10-06T13:16:37.083Z,33.52
2022-10-06T13:19:04.362Z,33.30
2022-10-06T13:21:37.363Z,33.26
2022-10-06T13:24:05.341Z,33.43
2022-10-06T13:26:37.422Z,32.43
2022-10-06T13:29:19.613Z,32.04
2022-10-06T13:32:10.099Z,32.88
2022-10-06T13:34:46.534Z,33.29
2022-10-06T13:37:28.563Z,33.43
2022-10-06T13:40:02.415Z,33.45
2022-10-06T13:42:41.895Z,32.78
2022-10-06T13:45:15.007Z,33.17
2022-10-06T13:47:42.454Z,34.35
2022-10-06T13:50:20.315Z,33.76
2022-10-06T13:52:49.736Z,34.16
2022-10-06T13:55:27.757Z,34.26
2022-10-06T13:58:04.840Z,34.75
2022-10-06T14:00:50.406Z,34.37
2022-10-06T14:03:28.602Z,33.63
2022-10-06T14:06:18.863Z,33.57
2022-10-06T14:09:03.574Z,34.12
2022-10-06T14:11:34.185Z,34.56
2022-10-06T14:14:04.357Z,34.56
2022-10-06T14:16:33.484Z,35.07
2022-10-06T14:19:06.904Z,35.30
2022-10-06T14:21:45.851Z,34.96
2022-10-06T14:24:17.864Z,35.01
2022-10-06T14:26:53.561Z,35.04
2022-10-06T14:29:21.486Z,34.99
2022-10-06T14:31:52.018Z,34.58
2022-10-06T14:34:21.206Z,34.70
2022-10-06T14:36:54.038Z,34.80
2022-10-06T14:39:22.925Z,35.15
2022-10-06T14:42:15.971Z,35.02
2022-10-06T14:44:44.949Z,34.82
2022-10-06T14:47:13.452Z,35.51
2022-10-06T14:52:41.731Z,35.79
2022-10-06T14:55:09.516Z,36.52
2022-10-06T14:57:38.532Z,36.56
2022-10-06T15:00:13.928Z,36.72
2022-10-06T15:05:30.611Z,37.38
2022-10-06T15:08:14.224Z,37.66
2022-10-06T15:10:53.929Z,38.84
2022-10-06T15:13:23.414Z,39.21
2022-10-06T15:15:57.948Z,39.53
2022-10-06T15:18:28.320Z,39.96
2022-10-06T15:21:03.074Z,40.88
2022-10-06T15:23:30.805Z,41.74
2022-10-06T15:26:16.971Z,42.76
2022-10-06T15:29:03.397Z,43.18
2022-10-06T15:31:56.184Z,43.96
2022-10-06T15:34:35.787Z,45.24
2022-10-06T15:37:10.144Z,45.98
2022-10-06T15:39:38.547Z,47.13
2022-10-06T15:42:13.440Z,46.94
2022-10-06T15:44:45.016Z,47.75
2022-10-06T15:47:17.887Z,48.49
2022-10-06T15:49:55.275Z,48.65
2022-10-06T15:52:24.098Z,48.93
2022-10-06T15:54:58.791Z,49.44
2022-10-06T15:57:31.216Z,49.69
2022-10-06T15:59:58.794Z,50.36
2022-10-06T16:02:36.451Z,50.35
2022-10-06T16:05:07.908Z,50.16
2022-10-06T16:07:37.296Z,49.94
2022-10-06T16:10:05.155Z,49.16
2022-10-06T16:13:00.895Z,48.86
2022-10-06T16:15:28.031Z,48.74
2022-10-06T16:17:58.068Z,48.30
2022-10-06T16:20:35.626Z,48.01
2022-10-06T16:23:02.931Z,47.79
2022-10-06T16:25:36.830Z,49.81
2022-10-06T16:28:12.964Z,50.98
2022-10-06T16:30:42.269Z,51.42
2022-10-06T16:33:09.573Z,53.00
2022-10-06T16:35:39.114Z,53.62
2022-10-06T16:38:09.643Z,53.79
2022-10-06T16:40:37.408Z,54.69
2022-10-06T16:43:07.583Z,54.92
2022-10-06T16:45:38.474Z,54.65
2022-10-06T16:48:07.392Z,55.52
2022-10-06T16:50:34.507Z,55.80
2022-10-06T16:53:04.461Z,56.10
2022-10-06T16:55:31.560Z,57.00
2022-10-06T16:57:58.788Z,57.01
2022-10-06T17:00:28.363Z,57.87
2022-10-06T17:02:55.989Z,57.70
2022-10-06T17:05:23.154Z,57.37
2022-10-06T17:08:04.965Z,57.68
2022-10-06T17:10:34.348Z,57.64
2022-10-06T17:13:03.065Z,57.32
2022-10-06T17:15:33.483Z,57.32
2022-10-06T17:18:01.757Z,57.53
2022-10-06T17:24:05.467Z,57.34
2022-10-06T17:29:24.232Z,58.93
2022-10-06T17:31:56.656Z,59.43
2022-10-06T17:34:26.640Z,59.31
2022-10-06T17:36:58.290Z,59.28
2022-10-06T17:39:25.321Z,59.66
2022-10-06T17:41:53.701Z,59.76
2022-10-06T17:44:26.693Z,59.85
2022-10-06T17:47:01.111Z,60.14
2022-10-06T17:49:32.879Z,59.99
2022-10-06T17:52:00.848Z,60.11
2022-10-06T17:54:29.542Z,60.25
2022-10-06T17:56:58.201Z,60.81
2022-10-06T17:59:34.215Z,60.47
2022-10-06T18:02:04.096Z,61.07
2022-10-06T18:04:35.034Z,60.64
2022-10-06T18:07:06.642Z,61.14
2022-10-06T18:09:33.990Z,60.82
2022-10-06T18:12:03.123Z,61.35
2022-10-06T18:14:34.178Z,61.66
2022-10-06T18:17:04.012Z,61.51
2022-10-06T18:19:35.377Z,62.01
2022-10-06T18:22:13.080Z,62.26
2022-10-06T18:24:48.089Z,62.85
2022-10-06T18:27:15.209Z,63.07
2022-10-06T18:29:42.776Z,62.64
2022-10-06T18:33:44.313Z,62.65
2022-10-06T18:41:47.637Z,63.29
2022-10-06T18:44:37.194Z,64.01
2022-10-06T18:47:23.100Z,63.70
2022-10-06T18:49:50.649Z,63.70
2022-10-06T18:52:26.926Z,63.96
2022-10-06T18:54:55.245Z,64.07
2022-10-06T18:57:27.674Z,64.33
2022-10-06T18:59:58.086Z,64.58
2022-10-06T19:02:26.396Z,64.68
2022-10-06T19:07:45.388Z,65.21
2022-10-06T19:10:26.531Z,65.02
2022-10-06T19:12:54.116Z,65.34
2022-10-06T19:15:23.731Z,64.89
2022-10-06T19:17:51.730Z,65.39
2022-10-06T19:20:20.516Z,65.30
2022-10-06T19:22:47.922Z,65.78
2022-10-06T19:25:19.393Z,65.92
2022-10-06T19:27:47.432Z,66.58
2022-10-06T19:30:18.601Z,66.59
2022-10-06T19:32:48.862Z,66.72
2022-10-06T19:35:16.302Z,66.94
2022-10-06T19:37:43.524Z,67.09
2022-10-06T19:40:11.608Z,67.27
2022-10-06T19:42:47.866Z,67.64
2022-10-06T19:45:21.449Z,67.70
2022-10-06T19:47:48.907Z,67.77
2022-10-06T19:50:18.575Z,67.72
2022-10-06T19:52:48.873Z,67.65
2022-10-06T19:55:23.318Z,68.02
2022-10-06T19:57:53.167Z,68.24
2022-10-06T20:00:23.846Z,69.10
2022-10-06T20:02:51.222Z,69.26
2022-10-06T20:05:21.194Z,69.05
2022-10-06T20:07:52.373Z,68.92
2022-10-06T20:10:19.493Z,69.50
2022-10-06T20:12:47.162Z,69.57
2022-10-06T20:15:15.462Z,69.57
2022-10-06T20:17:43.158Z,70.16
2022-10-06T20:20:11.085Z,70.05
2022-10-06T20:22:38.411Z,69.96
2022-10-06T20:25:07.443Z,70.35
2022-10-06T20:27:38.871Z,70.61
2022-10-06T20:30:10.113Z,70.68
2022-10-06T20:32:41.352Z,70.34
2022-10-06T20:35:23.985Z,70.74
2022-10-06T20:37:51.944Z,71.03
2022-10-06T20:40:37.849Z,71.38
2022-10-06T20:43:30.218Z,71.34
2022-10-06T20:46:00.840Z,70.85
2022-10-06T20:48:29.668Z,70.71
2022-10-06T20:50:57.858Z,71.21
2022-10-06T20:53:31.457Z,71.53
2022-10-06T20:56:00.335Z,71.65
2022-10-06T20:58:27.448Z,71.80
2022-10-06T21:00:54.766Z,72.17
2022-10-06T21:03:23.583Z,71.88
2022-10-06T21:05:51.217Z,72.26
2022-10-06T21:08:19.361Z,72.20
2022-10-06T21:10:55.920Z,72.35
2022-10-06T21:13:23.038Z,72.56
2022-10-06T21:15:50.636Z,72.78
2022-10-06T21:18:20.046Z,72.67
2022-10-06T21:20:55.545Z,72.38
2022-10-06T21:23:23.308Z,72.63
2022-10-06T21:25:50.336Z,73.04
2022-10-06T21:28:18.611Z,73.07
2022-10-06T21:30:46.439Z,73.15
2022-10-06T21:33:13.690Z,73.39
2022-10-06T21:35:40.595Z,73.42
2022-10-06T21:38:11.996Z,73.54
2022-10-06T21:40:39.146Z,73.85
2022-10-06T21:43:06.166Z,73.94
2022-10-06T21:45:33.707Z,73.86
2022-10-06T21:48:00.653Z,74.26
2022-10-06T21:50:27.721Z,74.20
2022-10-06T21:52:59.088Z,73.92
2022-10-06T21:55:27.115Z,74.24
2022-10-06T21:57:56.886Z,74.15
2022-10-06T22:00:26.344Z,74.28
2022-10-06T22:02:54.241Z,74.51
2022-10-06T22:05:21.696Z,74.61
2022-10-06T22:07:48.732Z,74.38
2022-10-06T22:10:16.785Z,74.57
2022-10-06T22:12:47.156Z,74.76
2022-10-06T22:15:14.158Z,74.96
2022-10-06T22:17:41.305Z,75.07
2022-10-06T22:20:09.557Z,75.36
2022-10-06T22:22:36.469Z,75.72
2022-10-06T22:25:03.752Z,75.85
2022-10-06T22:27:33.096Z,75.83
2022-10-06T22:30:00.291Z,75.79
2022-10-06T22:32:27.296Z,76.02
2022-10-06T22:34:55.022Z,76.34
2022-10-06T22:37:26.514Z,75.80
2022-10-06T22:39:54.560Z,76.44
2022-10-06T22:42:22.270Z,76.84
2022-10-06T22:44:51.443Z,76.92
2022-10-06T22:47:18.656Z,76.80
2022-10-06T22:49:45.881Z,77.66
2022-10-06T22:52:12.889Z,77.15
2022-10-06T22:54:39.954Z,77.10
2022-10-06T22:57:07.448Z,77.47
2022-10-06T22:59:34.537Z,77.59
2022-10-06T23:02:02.752Z,77.93
2022-10-06T23:04:30.387Z,78.02
2022-10-06T23:06:57.833Z,77.92
2022-10-06T23:09:24.877Z,78.11
2022-10-06T23:11:52.320Z,78.14
2022-10-06T23:14:19.410Z,78.51
2022-10-06T23:16:49.866Z,78.96
2022-10-06T23:19:17.567Z,79.06
2022-10-06T23:21:44.613Z,79.74
2022-10-06T23:24:13.689Z,79.49
2022-10-06T23:26:43.965Z,79.46
2022-10-06T23:29:12.742Z,79.46
2022-10-06T23:31:40.860Z,79.06
2022-10-06T23:34:08.309Z,79.26
2022-10-06T23:36:35.350Z,79.46
2022-10-06T23:39:04.572Z,79.35
2022-10-06T23:41:31.864Z,79.23
2022-10-06T23:44:00.452Z,79.57
2022-10-06T23:46:27.394Z,79.98
2022-10-06T23:48:57.068Z,79.88
2022-10-06T23:51:24.133Z,80.45
2022-10-06T23:53:51.159Z,80.27
2022-10-06T23:56:21.559Z,79.87
2022-10-06T23:58:49.493Z,80.30
